weather.gov     
National Weather Service

Terminal Aerodrome Forecast
NWS Homepage
This page is being discontinued on March 12, 2014.
The same data is available at this site. Please update your bookmarks.
Thank you, and we apologize for the inconvenience.
Please send an email to SR-SRH.Webmaster@noaa.gov with any concerns.


Current Version
Previous Version:    01  02  03  04  05  06  07  08  09  10  11  12  13  14  15  16  17  18  19  20  21  22  23  24  25  
[Printable]
861
FTUS41 KILN 311700
TAFLUK
TAF
KLUK 311740Z 3118/0118 31010KT P6SM -SHRA SCT018 OVC030
     FM312200 32012G20KT P6SM SCT030 OVC045
     FM010100 33014G22KT P6SM -SHRA SCT015 OVC025
     FM010400 34016G24KT 5SM -RASN BR OVC015
     FM010700 35016G24KT P6SM VCSH OVC018
     FM011400 35015G23KT P6SM OVC025=


U.S. Dept. of Commerce
NOAA National Weather Service
1325 East West Highway
Silver Spring, MD 20910
E-mail: w-nws.webmaster@noaa.gov
Page last modified: May 16, 2007
NATIONAL WEATHER SERVICE: for Safety, for Work, for Fun - FOR LIFE